Aviation Digital Data Service (ADDS)

Output produced by METARs form (1815 UTC 24 June 2019)
found at http://www.aviationweather.gov/metar/data/
 
METAR text: TGPY 241800Z 08015KT 9999 SCT018 30/25 Q1013 NOSIG
Conditions at: TGPY (POINT SALINES , GD) observed 1800 UTC 24 June 2019
Temperature: 30.0°C (86°F)
Dewpoint: 25.0°C (77°F) [RH = 75%]
Pressure (altimeter): 29.91 inches Hg (1013.0 mb)
Winds: from the E (80 degrees) at 17 MPH (15 knots; 7.7 m/s)
Visibility: 6 or more miles (10+ km)
Ceiling: at least 12,000 feet AGL
Clouds: scattered clouds at 1800 feet AGL
Weather: no significant weather observed at this time

METAR text: TGPY 241700Z 10011KT 9999 SCT018 30/25 Q1014 NOSIG
Conditions at: TGPY (POINT SALINES , GD) observed 1700 UTC 24 June 2019
Temperature: 30.0°C (86°F)
Dewpoint: 25.0°C (77°F) [RH = 75%]
Pressure (altimeter): 29.94 inches Hg (1014.0 mb)
Winds: from the E (100 degrees) at 13 MPH (11 knots; 5.7 m/s)
Visibility: 6 or more miles (10+ km)
Ceiling: at least 12,000 feet AGL
Clouds: scattered clouds at 1800 feet AGL
Weather: no significant weather observed at this time

METAR text: TGPY 241600Z 11013KT 9999 FEW015CB 30/25 Q1015 NOSIG CB-SSW/W
Conditions at: TGPY (POINT SALINES , GD) observed 1600 UTC 24 June 2019
Temperature: 30.0°C (86°F)
Dewpoint: 25.0°C (77°F) [RH = 75%]
Pressure (altimeter): 29.97 inches Hg (1015.0 mb)
Winds: from the ESE (110 degrees) at 15 MPH (13 knots; 6.7 m/s)
Visibility: 6 or more miles (10+ km)
Ceiling: at least 12,000 feet AGL
Clouds: few clouds at 1500 feet AGL
Weather: SS  (sandstorm)

METAR text: TGPY 241500Z 09017KT 9999 SCT018 29/25 Q1015 NOSIG
Conditions at: TGPY (POINT SALINES , GD) observed 1500 UTC 24 June 2019
Temperature: 29.0°C (84°F)
Dewpoint: 25.0°C (77°F) [RH = 79%]
Pressure (altimeter): 29.97 inches Hg (1015.0 mb)
Winds: from the E (90 degrees) at 20 MPH (17 knots; 8.7 m/s)
Visibility: 6 or more miles (10+ km)
Ceiling: at least 12,000 feet AGL
Clouds: scattered clouds at 1800 feet AGL
Weather: no significant weather observed at this time

METAR text: TGPY 241400Z 10017KT 9999 FEW018 29/24 Q1015 NOSIG
Conditions at: TGPY (POINT SALINES , GD) observed 1400 UTC 24 June 2019
Temperature: 29.0°C (84°F)
Dewpoint: 24.0°C (75°F) [RH = 74%]
Pressure (altimeter): 29.97 inches Hg (1015.0 mb)
Winds: from the E (100 degrees) at 20 MPH (17 knots; 8.7 m/s)
Visibility: 6 or more miles (10+ km)
Ceiling: at least 12,000 feet AGL
Clouds: few clouds at 1800 feet AGL
Weather: no significant weather observed at this time

METAR text: TGPY 241300Z 08015KT 9999 FEW015CB SCT035 28/25 Q1015 NOSIG CB-SSW ADJ SHRA-S/SW/W
Conditions at: TGPY (POINT SALINES , GD) observed 1300 UTC 24 June 2019
Temperature: 28.0°C (82°F)
Dewpoint: 25.0°C (77°F) [RH = 84%]
Pressure (altimeter): 29.97 inches Hg (1015.0 mb)
Winds: from the E (80 degrees) at 17 MPH (15 knots; 7.7 m/s)
Visibility: 6 or more miles (10+ km)
Ceiling: at least 12,000 feet AGL
Clouds: few clouds at 1500 feet AGL
scattered clouds at 3500 feet AGL
Weather: SHRA SS  (rain showers, sandstorm)

METAR text: TGPY 241200Z 07013KT 9999 FEW015CB 29/24 Q1015 NOSIG CB-S TCU-NNE/ESE ADJ SHRA-SE
Conditions at: TGPY (POINT SALINES , GD) observed 1200 UTC 24 June 2019
Temperature: 29.0°C (84°F)
Dewpoint: 24.0°C (75°F) [RH = 74%]
Pressure (altimeter): 29.97 inches Hg (1015.0 mb)
Winds: from the ENE (70 degrees) at 15 MPH (13 knots; 6.7 m/s)
Visibility: 6 or more miles (10+ km)
Ceiling: at least 12,000 feet AGL
Clouds: few clouds at 1500 feet AGL
Weather: SHRA  (rain showers)

METAR text: TGPY 241100Z 09011KT 9999 FEW015CB SCT035 27/25 Q1014 NOSIG CB-NNE/ESE/S
Conditions at: TGPY (POINT SALINES , GD) observed 1100 UTC 24 June 2019
Temperature: 27.0°C (81°F)
Dewpoint: 25.0°C (77°F) [RH = 89%]
Pressure (altimeter): 29.94 inches Hg (1014.0 mb)
Winds: from the E (90 degrees) at 13 MPH (11 knots; 5.7 m/s)
Visibility: 6 or more miles (10+ km)
Ceiling: at least 12,000 feet AGL
Clouds: few clouds at 1500 feet AGL
scattered clouds at 3500 feet AGL
Weather: no significant weather observed at this time

METAR text: TGPY 241000Z 10010KT 9999 FEW015CB 27/25 Q1014 NOSIG CB-W/N
Conditions at: TGPY (POINT SALINES , GD) observed 1000 UTC 24 June 2019
Temperature: 27.0°C (81°F)
Dewpoint: 25.0°C (77°F) [RH = 89%]
Pressure (altimeter): 29.94 inches Hg (1014.0 mb)
Winds: from the E (100 degrees) at 12 MPH (10 knots; 5.1 m/s)
Visibility: 6 or more miles (10+ km)
Ceiling: at least 12,000 feet AGL
Clouds: few clouds at 1500 feet AGL
Weather: no significant weather observed at this time

METAR text: TGPY 240900Z 10010KT 9999 FEW018 27/25 Q1013 NOSIG
Conditions at: TGPY (POINT SALINES , GD) observed 0900 UTC 24 June 2019
Temperature: 27.0°C (81°F)
Dewpoint: 25.0°C (77°F) [RH = 89%]
Pressure (altimeter): 29.91 inches Hg (1013.0 mb)
Winds: from the E (100 degrees) at 12 MPH (10 knots; 5.1 m/s)
Visibility: 6 or more miles (10+ km)
Ceiling: at least 12,000 feet AGL
Clouds: few clouds at 1800 feet AGL
Weather: no significant weather observed at this time

METAR text: TGPY 240800Z 09010KT 9999 FEW018 26/25 Q1014 NOSIG
Conditions at: TGPY (POINT SALINES , GD) observed 0800 UTC 24 June 2019
Temperature: 26.0°C (79°F)
Dewpoint: 25.0°C (77°F) [RH = 94%]
Pressure (altimeter): 29.94 inches Hg (1014.0 mb)
Winds: from the E (90 degrees) at 12 MPH (10 knots; 5.1 m/s)
Visibility: 6 or more miles (10+ km)
Ceiling: at least 12,000 feet AGL
Clouds: few clouds at 1800 feet AGL
Weather: no significant weather observed at this time

METAR text: TGPY 240700Z 09010KT 9999 FEW018 26/25 Q1014 NOSIG
Conditions at: TGPY (POINT SALINES , GD) observed 0700 UTC 24 June 2019
Temperature: 26.0°C (79°F)
Dewpoint: 25.0°C (77°F) [RH = 94%]
Pressure (altimeter): 29.94 inches Hg (1014.0 mb)
Winds: from the E (90 degrees) at 12 MPH (10 knots; 5.1 m/s)
Visibility: 6 or more miles (10+ km)
Ceiling: at least 12,000 feet AGL
Clouds: few clouds at 1800 feet AGL
Weather: no significant weather observed at this time

METAR text: TGPY 240600Z 09005KT 9999 SCT018 27/25 Q1014
Conditions at: TGPY (POINT SALINES , GD) observed 0600 UTC 24 June 2019
Temperature: 27.0°C (81°F)
Dewpoint: 25.0°C (77°F) [RH = 89%]
Pressure (altimeter): 29.94 inches Hg (1014.0 mb)
Winds: from the E (90 degrees) at 6 MPH (5 knots; 2.6 m/s)
Visibility: 6 or more miles (10+ km)
Ceiling: at least 12,000 feet AGL
Clouds: scattered clouds at 1800 feet AGL
Weather: no significant weather observed at this time

METAR text: TGPY 240500Z 10005KT 9999 FEW018 27/25 Q1014
Conditions at: TGPY (POINT SALINES , GD) observed 0500 UTC 24 June 2019
Temperature: 27.0°C (81°F)
Dewpoint: 25.0°C (77°F) [RH = 89%]
Pressure (altimeter): 29.94 inches Hg (1014.0 mb)
Winds: from the E (100 degrees) at 6 MPH (5 knots; 2.6 m/s)
Visibility: 6 or more miles (10+ km)
Ceiling: at least 12,000 feet AGL
Clouds: few clouds at 1800 feet AGL
Weather: no significant weather observed at this time

METAR text: TGPY 240400Z 09006KT 9999 FEW018 27/25 Q1015 NOSIG
Conditions at: TGPY (POINT SALINES , GD) observed 0400 UTC 24 June 2019
Temperature: 27.0°C (81°F)
Dewpoint: 25.0°C (77°F) [RH = 89%]
Pressure (altimeter): 29.97 inches Hg (1015.0 mb)
Winds: from the E (90 degrees) at 7 MPH (6 knots; 3.1 m/s)
Visibility: 6 or more miles (10+ km)
Ceiling: at least 12,000 feet AGL
Clouds: few clouds at 1800 feet AGL
Weather: no significant weather observed at this time

METAR text: TGPY 240300Z 09005KT 9999 FEW018 27/25 Q1015 NOSIG
Conditions at: TGPY (POINT SALINES , GD) observed 0300 UTC 24 June 2019
Temperature: 27.0°C (81°F)
Dewpoint: 25.0°C (77°F) [RH = 89%]
Pressure (altimeter): 29.97 inches Hg (1015.0 mb)
Winds: from the E (90 degrees) at 6 MPH (5 knots; 2.6 m/s)
Visibility: 6 or more miles (10+ km)
Ceiling: at least 12,000 feet AGL
Clouds: few clouds at 1800 feet AGL
Weather: no significant weather observed at this time

METAR text: TGPY 240200Z 11010KT 9999 FEW018 BKN040 28/25 Q1015 NOSIG
Conditions at: TGPY (POINT SALINES , GD) observed 0200 UTC 24 June 2019
Temperature: 28.0°C (82°F)
Dewpoint: 25.0°C (77°F) [RH = 84%]
Pressure (altimeter): 29.97 inches Hg (1015.0 mb)
Winds: from the ESE (110 degrees) at 12 MPH (10 knots; 5.1 m/s)
Visibility: 6 or more miles (10+ km)
Ceiling: 4000 feet AGL
Clouds: few clouds at 1800 feet AGL
broken clouds at 4000 feet AGL
Weather: no significant weather observed at this time

METAR text: TGPY 240100Z 11010KT 9999 FEW018 BKN040 28/25 Q1014 NOSIG
Conditions at: TGPY (POINT SALINES , GD) observed 0100 UTC 24 June 2019
Temperature: 28.0°C (82°F)
Dewpoint: 25.0°C (77°F) [RH = 84%]
Pressure (altimeter): 29.94 inches Hg (1014.0 mb)
Winds: from the ESE (110 degrees) at 12 MPH (10 knots; 5.1 m/s)
Visibility: 6 or more miles (10+ km)
Ceiling: 4000 feet AGL
Clouds: few clouds at 1800 feet AGL
broken clouds at 4000 feet AGL
Weather: no significant weather observed at this time

METAR text: TGPY 240000Z 10010KT 9999 FEW018 BKN040 27/25 Q1014 NOSIG
Conditions at: TGPY (POINT SALINES , GD) observed 0000 UTC 24 June 2019
Temperature: 27.0°C (81°F)
Dewpoint: 25.0°C (77°F) [RH = 89%]
Pressure (altimeter): 29.94 inches Hg (1014.0 mb)
Winds: from the E (100 degrees) at 12 MPH (10 knots; 5.1 m/s)
Visibility: 6 or more miles (10+ km)
Ceiling: 4000 feet AGL
Clouds: few clouds at 1800 feet AGL
broken clouds at 4000 feet AGL
Weather: no significant weather observed at this time

METAR text: TGPY 232300Z 10010KT 9999 FEW018 BKN042 27/25 Q1014 NOSIG
Conditions at: TGPY (POINT SALINES , GD) observed 2300 UTC 23 June 2019
Temperature: 27.0°C (81°F)
Dewpoint: 25.0°C (77°F) [RH = 89%]
Pressure (altimeter): 29.94 inches Hg (1014.0 mb)
Winds: from the E (100 degrees) at 12 MPH (10 knots; 5.1 m/s)
Visibility: 6 or more miles (10+ km)
Ceiling: 4200 feet AGL
Clouds: few clouds at 1800 feet AGL
broken clouds at 4200 feet AGL
Weather: no significant weather observed at this time

METAR text: TGPY 232200Z 10008KT 9999 FEW018 BKN042 28/25 Q1013 NOSIG
Conditions at: TGPY (POINT SALINES , GD) observed 2200 UTC 23 June 2019
Temperature: 28.0°C (82°F)
Dewpoint: 25.0°C (77°F) [RH = 84%]
Pressure (altimeter): 29.91 inches Hg (1013.0 mb)
Winds: from the E (100 degrees) at 9 MPH (8 knots; 4.1 m/s)
Visibility: 6 or more miles (10+ km)
Ceiling: 4200 feet AGL
Clouds: few clouds at 1800 feet AGL
broken clouds at 4200 feet AGL
Weather: no significant weather observed at this time

METAR text: TGPY 232100Z 10010KT 9999 FEW019 BKN042 29/25 Q1014 NOSIG
Conditions at: TGPY (POINT SALINES , GD) observed 2100 UTC 23 June 2019
Temperature: 29.0°C (84°F)
Dewpoint: 25.0°C (77°F) [RH = 79%]
Pressure (altimeter): 29.94 inches Hg (1014.0 mb)
Winds: from the E (100 degrees) at 12 MPH (10 knots; 5.1 m/s)
Visibility: 6 or more miles (10+ km)
Ceiling: 4200 feet AGL
Clouds: few clouds at 1900 feet AGL
broken clouds at 4200 feet AGL
Weather: no significant weather observed at this time

METAR text: TGPY 232000Z 09012KT 9999 FEW019 BKN042 29/25 Q1014 NOSIG
Conditions at: TGPY (POINT SALINES , GD) observed 2000 UTC 23 June 2019
Temperature: 29.0°C (84°F)
Dewpoint: 25.0°C (77°F) [RH = 79%]
Pressure (altimeter): 29.94 inches Hg (1014.0 mb)
Winds: from the E (90 degrees) at 14 MPH (12 knots; 6.2 m/s)
Visibility: 6 or more miles (10+ km)
Ceiling: 4200 feet AGL
Clouds: few clouds at 1900 feet AGL
broken clouds at 4200 feet AGL
Weather: no significant weather observed at this time

METAR text: TGPY 231900Z 10014KT 9999 FEW019 BKN042 29/25 Q1015 NOSIG
Conditions at: TGPY (POINT SALINES , GD) observed 1900 UTC 23 June 2019
Temperature: 29.0°C (84°F)
Dewpoint: 25.0°C (77°F) [RH = 79%]
Pressure (altimeter): 29.97 inches Hg (1015.0 mb)
Winds: from the E (100 degrees) at 16 MPH (14 knots; 7.2 m/s)
Visibility: 6 or more miles (10+ km)
Ceiling: 4200 feet AGL
Clouds: few clouds at 1900 feet AGL
broken clouds at 4200 feet AGL
Weather: no significant weather observed at this time

METAR text: TGPY 231800Z 12012KT 9999 FEW018 29/25 Q1015 NOSIG
Conditions at: TGPY (POINT SALINES , GD) observed 1800 UTC 23 June 2019
Temperature: 29.0°C (84°F)
Dewpoint: 25.0°C (77°F) [RH = 79%]
Pressure (altimeter): 29.97 inches Hg (1015.0 mb)
Winds: from the ESE (120 degrees) at 14 MPH (12 knots; 6.2 m/s)
Visibility: 6 or more miles (10+ km)
Ceiling: at least 12,000 feet AGL
Clouds: few clouds at 1800 feet AGL
Weather: no significant weather observed at this time

METAR text: TGPY 231700Z 11014KT 9999 FEW018 29/25 Q1016 NOSIG
Conditions at: TGPY (POINT SALINES , GD) observed 1700 UTC 23 June 2019
Temperature: 29.0°C (84°F)
Dewpoint: 25.0°C (77°F) [RH = 79%]
Pressure (altimeter): 30.00 inches Hg (1016.0 mb)
Winds: from the ESE (110 degrees) at 16 MPH (14 knots; 7.2 m/s)
Visibility: 6 or more miles (10+ km)
Ceiling: at least 12,000 feet AGL
Clouds: few clouds at 1800 feet AGL
Weather: no significant weather observed at this time

METAR text: TGPY 231600Z 07010KT 9999 FEW018 29/25 Q1016 NOSIG
Conditions at: TGPY (POINT SALINES , GD) observed 1600 UTC 23 June 2019
Temperature: 29.0°C (84°F)
Dewpoint: 25.0°C (77°F) [RH = 79%]
Pressure (altimeter): 30.00 inches Hg (1016.0 mb)
Winds: from the ENE (70 degrees) at 12 MPH (10 knots; 5.1 m/s)
Visibility: 6 or more miles (10+ km)
Ceiling: at least 12,000 feet AGL
Clouds: few clouds at 1800 feet AGL
Weather: no significant weather observed at this time

METAR text: TGPY 231500Z 07006KT 9999 SCT018 29/26 Q1017 NOSIG
Conditions at: TGPY (POINT SALINES , GD) observed 1500 UTC 23 June 2019
Temperature: 29.0°C (84°F)
Dewpoint: 26.0°C (79°F) [RH = 84%]
Pressure (altimeter): 30.03 inches Hg (1017.0 mb)
Winds: from the ENE (70 degrees) at 7 MPH (6 knots; 3.1 m/s)
Visibility: 6 or more miles (10+ km)
Ceiling: at least 12,000 feet AGL
Clouds: scattered clouds at 1800 feet AGL
Weather: no significant weather observed at this time

METAR text: TGPY 231400Z 07010KT 9999 SCT018 29/26 Q1017 NOSIG
Conditions at: TGPY (POINT SALINES , GD) observed 1400 UTC 23 June 2019
Temperature: 29.0°C (84°F)
Dewpoint: 26.0°C (79°F) [RH = 84%]
Pressure (altimeter): 30.03 inches Hg (1017.0 mb)
Winds: from the ENE (70 degrees) at 12 MPH (10 knots; 5.1 m/s)
Visibility: 6 or more miles (10+ km)
Ceiling: at least 12,000 feet AGL
Clouds: scattered clouds at 1800 feet AGL
Weather: no significant weather observed at this time

METAR text: TGPY 231300Z 07012KT 9999 SCT018 29/26 Q1017 NOSIG
Conditions at: TGPY (POINT SALINES , GD) observed 1300 UTC 23 June 2019
Temperature: 29.0°C (84°F)
Dewpoint: 26.0°C (79°F) [RH = 84%]
Pressure (altimeter): 30.03 inches Hg (1017.0 mb)
Winds: from the ENE (70 degrees) at 14 MPH (12 knots; 6.2 m/s)
Visibility: 6 or more miles (10+ km)
Ceiling: at least 12,000 feet AGL
Clouds: scattered clouds at 1800 feet AGL
Weather: no significant weather observed at this time

METAR text: TGPY 231200Z 00000KT 9999 FEW018 26/25 Q1016 NOSIG
Conditions at: TGPY (POINT SALINES , GD) observed 1200 UTC 23 June 2019
Temperature: 26.0°C (79°F)
Dewpoint: 25.0°C (77°F) [RH = 94%]
Pressure (altimeter): 30.00 inches Hg (1016.0 mb)
Winds: calm
Visibility: 6 or more miles (10+ km)
Ceiling: at least 12,000 feet AGL
Clouds: few clouds at 1800 feet AGL
Weather: no significant weather observed at this time

METAR text: TGPY 231000Z 00000KT 9999 -RA FEW018 BKN035 25/24 Q1016 TEMPO SHRA
Conditions at: TGPY (POINT SALINES , GD) observed 1000 UTC 23 June 2019
Temperature: 25.0°C (77°F)
Dewpoint: 24.0°C (75°F) [RH = 94%]
Pressure (altimeter): 30.00 inches Hg (1016.0 mb)
Winds: calm
Visibility: 6 or more miles (10+ km)
Ceiling: 3500 feet AGL
Clouds: few clouds at 1800 feet AGL
broken clouds at 3500 feet AGL
Weather: -RA  (light rain)

METAR text: TGPY 230900Z 08006KT 9999 -SHRA SCT016 BKN035 25/24 Q1016 TEMPO SHRA
Conditions at: TGPY (POINT SALINES , GD) observed 0900 UTC 23 June 2019
Temperature: 25.0°C (77°F)
Dewpoint: 24.0°C (75°F) [RH = 94%]
Pressure (altimeter): 30.00 inches Hg (1016.0 mb)
Winds: from the E (80 degrees) at 7 MPH (6 knots; 3.1 m/s)
Visibility: 6 or more miles (10+ km)
Ceiling: 3500 feet AGL
Clouds: scattered clouds at 1600 feet AGL
broken clouds at 3500 feet AGL
Weather: -SHRA  (light rain showers)

METAR text: TGPY 230800Z 10010KT 9999 SCT016 BKN035 25/24 Q1016 TEMPO SHRA
Conditions at: TGPY (POINT SALINES , GD) observed 0800 UTC 23 June 2019
Temperature: 25.0°C (77°F)
Dewpoint: 24.0°C (75°F) [RH = 94%]
Pressure (altimeter): 30.00 inches Hg (1016.0 mb)
Winds: from the E (100 degrees) at 12 MPH (10 knots; 5.1 m/s)
Visibility: 6 or more miles (10+ km)
Ceiling: 3500 feet AGL
Clouds: scattered clouds at 1600 feet AGL
broken clouds at 3500 feet AGL
Weather: no significant weather observed at this time

METAR text: TGPY 230700Z 05015KT 9999 TS FEW019CB SCT018 BKN035 26/24 Q1016 TEMPO SHRA
Conditions at: TGPY (POINT SALINES , GD) observed 0700 UTC 23 June 2019
Temperature: 26.0°C (79°F)
Dewpoint: 24.0°C (75°F) [RH = 89%]
Pressure (altimeter): 30.00 inches Hg (1016.0 mb)
Winds: from the NE (50 degrees) at 17 MPH (15 knots; 7.7 m/s)
Visibility: 6 or more miles (10+ km)
Ceiling: 3500 feet AGL
Clouds: few clouds at 1900 feet AGL
scattered clouds at 1800 feet AGL
broken clouds at 3500 feet AGL
Weather: TS  (thunderstorm)

Forecast for: TGPY (POINT SALINES , GD)
Text: TGPY 241637Z 2418/2518 11016KT 9999 FEW020
Forecast period: 1800 UTC 24 June 2019 to 0000 UTC 25 June 2019
Forecast type: FROM: standard forecast or significant change
Winds: from the ESE (110 degrees) at 18 MPH (16 knots; 8.2 m/s)
Visibility: 6 or more miles 10+ km)
Ceiling: at least 12,000 feet AGL
Clouds: few clouds at 2000 feet AGL
Weather: no significant weather forecast for this period
Text: BECMG 2500/2502 08010KT
Forecast period: 0000 to 1000 UTC 25 June 2019
Forecast type: BECOMING: Conditions expected to become as follows by 0200 UTC 25 June 2019
Winds: from the E (80 degrees) at 12 MPH (10 knots; 5.1 m/s)
Visibility: 6 or more miles 10+ km)
Ceiling: at least 12,000 feet AGL
Clouds: few clouds at 2000 feet AGL
Weather: no significant weather forecast for this period
Text: BECMG 2510/2512 11016KT FEW021
Forecast period: 1000 to 1800 UTC 25 June 2019
Forecast type: BECOMING: Conditions expected to become as follows by 1200 UTC 25 June 2019
Winds: from the ESE (110 degrees) at 18 MPH (16 knots; 8.2 m/s)
Visibility: 6 or more miles 10+ km)
Ceiling: at least 12,000 feet AGL
Clouds: few clouds at 2100 feet AGL
Weather: no significant weather forecast for this period